8°C Temp
7°C Dewpoint
93% Humidity
Temperature
32 KM/H
20 MPH
17 KTS
230°
South West

Wind Speed
Partly Cloudy
Conditions
Pressure 1008.92 (hPa) - 29.79 (in)
Visibility 4.4 (mi) - 7 (km)

Current Conditions
EHAM
Location Amsterdam Schiphol 6km (3.2mi)
Metar :EHAM 160555Z 23017KT 7000 -DZ FEW007 BKN009 08/07 Q1009 TEMPO 4000 DZ
Wed 16th January 06:55 am

Airport
  Metar Aviation API Data Provided by https://www.checkwx.com/ PHP scripts by weather34.com ©2019